createdAt,value
2023-03-26T00:01:12.955Z,5.3
2023-03-26T00:05:24.543Z,6.6
2023-03-26T00:09:36.089Z,6.3
2023-03-26T00:11:44.908Z,5.6
2023-03-26T00:13:50.744Z,5.8
2023-03-26T00:26:28.539Z,5.5
2023-03-26T00:28:34.329Z,5.1
2023-03-26T00:32:45.929Z,6.3
2023-03-26T00:34:51.655Z,5.2
2023-03-26T00:36:57.472Z,5.9
2023-03-26T00:39:03.283Z,8.6
2023-03-26T00:43:17.903Z,8.2
2023-03-26T00:45:23.667Z,6.1
2023-03-26T00:46:28.093Z,8.2
2023-03-26T00:48:44.333Z,6.7
2023-03-26T00:50:39.661Z,6.2
2023-03-26T00:52:45.631Z,6.5
2023-03-26T00:54:54.294Z,7.9
2023-03-26T00:57:00.085Z,7.6
2023-03-26T01:03:27.438Z,6.7
2023-03-26T01:05:23.220Z,6.1
2023-03-26T01:07:28.924Z,7.9
2023-03-26T01:09:37.777Z,7.7
2023-03-26T01:11:43.571Z,6.3
2023-03-26T01:13:49.309Z,6.9
2023-03-26T01:15:55.244Z,7.5
2023-03-26T01:18:00.964Z,8
2023-03-26T01:20:06.682Z,8
2023-03-26T01:32:44.571Z,7
2023-03-26T01:48:32.404Z,7.7
2023-03-26T01:50:38.160Z,5.7
2023-03-26T01:52:47.017Z,8.1
2023-03-26T01:59:04.355Z,7.8
2023-03-26T02:01:10.757Z,5.9
2023-03-26T02:07:31.196Z,12.6
2023-03-26T02:09:36.957Z,7.4
2023-03-26T02:11:42.698Z,8
2023-03-26T02:26:26.235Z,7.3
2023-03-26T02:28:31.999Z,7
2023-03-26T02:30:37.768Z,7.3
2023-03-26T02:36:58.173Z,8
2023-03-26T02:39:03.885Z,7.7
2023-03-26T02:41:09.691Z,8.8
2023-03-26T02:43:33.711Z,7.4
2023-03-26T02:49:54.098Z,7.9
2023-03-26T02:51:59.840Z,7.4
2023-03-26T02:54:05.652Z,8.3
2023-03-26T02:56:11.422Z,6.7
2023-03-26T02:58:17.180Z,7.5
2023-03-26T03:00:23.040Z,6.7
2023-03-26T03:02:28.865Z,8.2
2023-03-26T03:04:37.606Z,8
2023-03-26T03:08:49.098Z,7.2
2023-03-26T03:10:54.894Z,6.8
2023-03-26T03:13:00.636Z,5.9
2023-03-26T03:15:06.438Z,6.7
2023-03-26T03:17:12.204Z,6.6
2023-03-26T03:19:21.041Z,6.9
2023-03-26T03:21:26.833Z,9.1
2023-03-26T03:23:32.620Z,9.8
2023-03-26T03:25:38.396Z,8.4
2023-03-26T03:27:44.196Z,5.6
2023-03-26T03:31:55.740Z,6.5
2023-03-26T03:36:10.509Z,7.7
2023-03-26T03:38:16.175Z,8.7
2023-03-26T03:39:20.623Z,9.8
2023-03-26T03:41:27.368Z,8.8
2023-03-26T03:43:33.171Z,6.5
2023-03-26T03:45:38.923Z,7.4
2023-03-26T03:47:47.824Z,7.7
2023-03-26T03:49:53.568Z,9.1
2023-03-26T03:51:59.370Z,6.4
2023-03-26T03:54:05.278Z,8.3
2023-03-26T04:00:22.533Z,7.1
2023-03-26T04:02:31.534Z,8.9
2023-03-26T04:04:37.242Z,9.7
2023-03-26T04:06:42.994Z,9.4
2023-03-26T04:08:48.804Z,8
2023-03-26T04:13:00.395Z,6.8
2023-03-26T04:21:26.633Z,8.9
2023-03-26T04:23:32.467Z,6.8
2023-03-26T04:27:44.097Z,7.2
2023-03-26T04:34:06.049Z,7.2
2023-03-26T04:37:16.291Z,8
2023-03-26T04:39:22.079Z,9.5
2023-03-26T04:41:27.875Z,10.1
2023-03-26T04:43:33.683Z,6.9
2023-03-26T04:45:42.604Z,10.3
2023-03-26T04:47:48.375Z,8.1
2023-03-26T04:49:54.145Z,9.6
2023-03-26T04:51:59.950Z,9.3
2023-03-26T04:54:05.757Z,7.7
2023-03-26T04:58:17.349Z,10
2023-03-26T05:00:26.230Z,10
2023-03-26T05:02:32.042Z,10.4
2023-03-26T05:04:37.861Z,10.2
2023-03-26T05:08:49.400Z,9
2023-03-26T05:19:21.442Z,8.7
2023-03-26T05:23:33.081Z,8.9
2023-03-26T05:27:44.628Z,7.9
2023-03-26T05:29:53.550Z,9.8
2023-03-26T05:31:59.285Z,9.1
2023-03-26T05:34:05.052Z,7.7
2023-03-26T05:35:09.494Z,7.4
2023-03-26T05:37:15.315Z,9.1
2023-03-26T05:39:21.085Z,9.1
2023-03-26T05:41:26.860Z,8.8
2023-03-26T05:43:35.706Z,7.9
2023-03-26T05:45:41.542Z,10.3
2023-03-26T05:47:47.542Z,11.3
2023-03-26T05:49:53.103Z,9
2023-03-26T05:51:58.896Z,9
2023-03-26T05:54:04.664Z,9.1
2023-03-26T05:56:10.466Z,9.4
2023-03-26T05:58:19.343Z,11
2023-03-26T06:00:25.132Z,9.9
2023-03-26T06:02:30.985Z,9.1
2023-03-26T06:04:36.807Z,10.7
2023-03-26T06:06:42.485Z,8.7
2023-03-26T06:08:48.302Z,11.6
2023-03-26T06:10:54.244Z,9.6
2023-03-26T06:21:26.077Z,12
2023-03-26T06:23:31.866Z,13.1
2023-03-26T06:25:37.661Z,11.7
2023-03-26T06:27:46.511Z,14.2
2023-03-26T06:29:52.304Z,9.4
2023-03-26T06:32:06.198Z,12.1
2023-03-26T06:38:35.236Z,13.1
2023-03-26T06:40:44.089Z,10.4
2023-03-26T06:44:55.638Z,12.6
2023-03-26T07:01:46.800Z,12.2
2023-03-26T07:05:56.570Z,12.1
2023-03-26T07:08:02.333Z,9.8
2023-03-26T07:10:11.229Z,10.2
2023-03-26T07:12:17.012Z,12.1
2023-03-26T07:14:22.851Z,12
2023-03-26T07:16:28.760Z,12.9
2023-03-26T07:18:34.386Z,13
2023-03-26T07:20:40.161Z,12.9
2023-03-26T07:22:45.960Z,11.9
2023-03-26T07:30:10.879Z,13.3
2023-03-26T07:32:18.458Z,11.5
2023-03-26T07:34:22.445Z,12.8
2023-03-26T07:36:28.251Z,10.1
2023-03-26T07:38:37.124Z,15.2
2023-03-26T07:40:42.914Z,14.5
2023-03-26T07:42:48.904Z,15.2
2023-03-26T07:44:54.530Z,17.7
2023-03-26T07:47:00.317Z,16.1
2023-03-26T07:49:06.086Z,14.6
2023-03-26T07:51:11.911Z,12.5
2023-03-26T07:55:26.564Z,15.1
2023-03-26T08:01:44.015Z,14.9
2023-03-26T08:03:49.836Z,12
2023-03-26T08:05:55.572Z,15.2
2023-03-26T08:08:04.457Z,13.5
2023-03-26T08:10:10.238Z,10.4
2023-03-26T08:12:16.048Z,11.8
2023-03-26T08:14:21.844Z,10.7
2023-03-26T08:16:27.650Z,11.3
2023-03-26T08:18:33.493Z,12
2023-03-26T08:20:39.209Z,10.6
2023-03-26T08:28:04.155Z,10
2023-03-26T08:30:09.938Z,9.6
2023-03-26T08:32:15.718Z,11.1
2023-03-26T08:34:21.511Z,9
2023-03-26T08:36:30.341Z,9.8
2023-03-26T08:38:36.132Z,12
2023-03-26T08:42:47.759Z,9.4
2023-03-26T08:44:53.505Z,9.5
2023-03-26T08:46:59.279Z,10.6
2023-03-26T08:49:05.091Z,8.8
2023-03-26T08:51:13.954Z,7.1
2023-03-26T08:53:19.726Z,6.4
2023-03-26T08:55:25.544Z,7.7
2023-03-26T08:57:31.324Z,7.8
2023-03-26T08:59:37.116Z,6.4
2023-03-26T09:03:48.725Z,6.5
2023-03-26T09:05:57.729Z,7
2023-03-26T09:08:03.347Z,7.8
2023-03-26T09:12:14.960Z,6.1
2023-03-26T09:14:20.733Z,7.3
2023-03-26T09:16:26.606Z,6.8
2023-03-26T09:18:32.341Z,7.8
2023-03-26T09:20:41.212Z,9.3
2023-03-26T09:24:52.825Z,7.5
2023-03-26T09:28:03.052Z,6.6
2023-03-26T09:34:23.561Z,7
2023-03-26T09:36:29.370Z,5.8
2023-03-26T09:38:35.160Z,6.4
2023-03-26T09:40:40.983Z,5.3
2023-03-26T09:42:46.780Z,4.4
2023-03-26T09:44:52.582Z,4.9
2023-03-26T09:46:58.396Z,6.2
2023-03-26T09:49:07.280Z,4.6
2023-03-26T09:51:12.994Z,5.1
2023-03-26T09:53:18.782Z,5.8
2023-03-26T09:55:24.586Z,5.5
2023-03-26T09:57:30.446Z,5.2
2023-03-26T09:59:36.212Z,4.2
2023-03-26T10:01:42.063Z,3.8
2023-03-26T10:03:50.932Z,4.1
2023-03-26T10:08:05.826Z,5.3
2023-03-26T10:12:14.134Z,5.5
2023-03-26T10:14:19.953Z,5.1
2023-03-26T10:16:25.856Z,5
2023-03-26T10:18:34.644Z,5.4
2023-03-26T10:27:24.742Z,4.6
2023-03-26T10:29:29.275Z,4.6
2023-03-26T10:31:39.727Z,6.3
2023-03-26T10:33:45.566Z,5.4
2023-03-26T10:35:51.404Z,5
2023-03-26T10:37:57.139Z,5.7
2023-03-26T10:40:02.924Z,4.9
2023-03-26T10:42:08.699Z,5.3
2023-03-26T10:44:14.502Z,4.4
2023-03-26T10:46:23.381Z,4.8
2023-03-26T10:52:40.735Z,4
2023-03-26T10:56:52.334Z,3.5
2023-03-26T10:58:58.072Z,5.3
2023-03-26T11:01:06.961Z,3.7
2023-03-26T11:03:12.744Z,4.8
2023-03-26T11:07:24.238Z,3.7
2023-03-26T11:09:30.004Z,4
2023-03-26T11:11:35.795Z,5.5
2023-03-26T11:13:41.576Z,4.1
2023-03-26T11:15:50.480Z,3.1
2023-03-26T11:17:56.320Z,3.1
2023-03-26T11:20:01.982Z,4.4
2023-03-26T11:21:18.854Z,4.8
2023-03-26T11:25:18.000Z,3.6
2023-03-26T11:27:25.149Z,3.8
2023-03-26T11:29:33.592Z,4.7
2023-03-26T11:31:38.435Z,2.6
2023-03-26T11:33:45.640Z,4.2
2023-03-26T11:37:55.734Z,3.4
2023-03-26T11:40:01.540Z,3.7
2023-03-26T11:42:07.305Z,4.1
2023-03-26T11:44:16.170Z,2.8
2023-03-26T11:46:21.972Z,5.3
2023-03-26T11:50:33.524Z,3
2023-03-26T11:54:45.089Z,5.1
2023-03-26T11:57:04.712Z,3.1
2023-03-26T12:01:05.540Z,4.6
2023-03-26T12:03:11.327Z,3.3
2023-03-26T12:05:17.078Z,3.5
2023-03-26T12:07:22.867Z,4
2023-03-26T12:09:28.628Z,5.3
2023-03-26T12:11:35.432Z,4
2023-03-26T12:13:43.279Z,4.5
2023-03-26T12:18:59.251Z,3
2023-03-26T12:29:31.225Z,2.4
2023-03-26T12:31:37.056Z,2.8
2023-03-26T12:33:42.804Z,3.8
2023-03-26T12:35:48.660Z,3
2023-03-26T12:37:55.524Z,2.3
2023-03-26T12:40:07.035Z,2.6
2023-03-26T12:42:09.041Z,3
2023-03-26T12:44:48.857Z,2.8
2023-03-26T12:47:56.337Z,3
2023-03-26T12:54:43.871Z,4.1
2023-03-26T12:58:58.572Z,2.5
2023-03-26T13:01:04.369Z,2.8
2023-03-26T13:03:10.266Z,2
2023-03-26T13:05:15.975Z,4
2023-03-26T13:07:21.803Z,2.1
2023-03-26T13:09:27.601Z,4
2023-03-26T13:15:47.945Z,4
2023-03-26T13:16:52.429Z,4
2023-03-26T13:21:03.921Z,5
2023-03-26T13:27:24.382Z,2.4
2023-03-26T13:29:30.165Z,2
2023-03-26T13:35:47.753Z,3.2
2023-03-26T13:40:02.294Z,2.2
2023-03-26T13:44:13.848Z,2.9
2023-03-26T13:46:19.702Z,1.2
2023-03-26T13:48:25.500Z,1.8
2023-03-26T13:50:31.319Z,1.3
2023-03-26T13:52:37.156Z,2.4
2023-03-26T13:56:51.720Z,2.6
2023-03-26T14:01:03.337Z,2.5
2023-03-26T14:03:09.206Z,2.1
2023-03-26T14:05:15.044Z,7.4
2023-03-26T14:07:20.729Z,2.6
2023-03-26T14:09:29.544Z,1.4
2023-03-26T14:11:35.358Z,1.5
2023-03-26T14:13:41.205Z,3.4
2023-03-26T14:16:12.690Z,5
2023-03-26T14:18:18.255Z,3.3
2023-03-26T14:20:23.980Z,3.6
2023-03-26T14:22:32.771Z,1.6
2023-03-26T14:33:01.615Z,3
2023-03-26T14:35:07.392Z,1.5
2023-03-26T14:37:17.311Z,3
2023-03-26T14:39:21.805Z,3.2
2023-03-26T14:41:27.530Z,2.6
2023-03-26T14:43:33.397Z,2.5
2023-03-26T14:45:39.182Z,2.8
2023-03-26T14:56:12.416Z,2.6
2023-03-26T14:58:17.179Z,2.5
2023-03-26T15:00:23.026Z,2.3
2023-03-26T15:04:34.654Z,2.4
2023-03-26T15:06:43.560Z,3.3
2023-03-26T15:08:49.368Z,3
2023-03-26T15:14:05.460Z,1.8
2023-03-26T15:16:11.290Z,2.7
2023-03-26T15:18:17.079Z,3
2023-03-26T15:20:26.013Z,2.4
2023-03-26T15:22:31.798Z,3.2
2023-03-26T15:24:37.613Z,2.3
2023-03-26T15:26:43.426Z,2.2
2023-03-26T15:28:49.227Z,2.4
2023-03-26T15:30:55.181Z,1.9
2023-03-26T15:39:21.371Z,2.5
2023-03-26T15:49:53.479Z,2.8
2023-03-26T15:51:59.274Z,2.8
2023-03-26T15:54:05.096Z,2.4
2023-03-26T15:56:10.899Z,2.5
2023-03-26T16:00:22.551Z,2.3
2023-03-26T16:02:28.348Z,3.9
2023-03-26T16:04:37.240Z,2.8
2023-03-26T16:06:42.957Z,2.3
2023-03-26T16:08:48.784Z,2.7
2023-03-26T16:09:53.203Z,2.8
2023-03-26T16:11:58.993Z,2
2023-03-26T16:16:10.630Z,2
2023-03-26T16:20:25.195Z,2.6
2023-03-26T16:22:31.020Z,1.6
2023-03-26T16:24:36.796Z,3.5
2023-03-26T16:26:42.623Z,1.6
2023-03-26T16:28:48.406Z,3
2023-03-26T16:30:54.553Z,2.1
2023-03-26T16:35:10.404Z,2
2023-03-26T16:45:39.342Z,2
2023-03-26T16:54:05.591Z,1.7
2023-03-26T16:56:11.347Z,1.5
2023-03-26T16:58:17.139Z,1.2
2023-03-26T17:00:22.859Z,2.4
2023-03-26T17:02:31.819Z,2.2
2023-03-26T17:04:37.483Z,2.6
2023-03-26T17:06:43.292Z,3.3
2023-03-26T17:07:47.698Z,0.7
2023-03-26T17:09:53.491Z,1.9
2023-03-26T17:16:13.937Z,2.7
2023-03-26T17:18:19.704Z,1.6
2023-03-26T17:24:36.953Z,2
2023-03-26T17:28:50.432Z,2.6
2023-03-26T17:30:57.555Z,3.5
2023-03-26T17:33:03.112Z,2.4
2023-03-26T17:37:14.632Z,2.3
2023-03-26T17:41:26.153Z,2
2023-03-26T17:56:09.555Z,2.1
2023-03-26T18:02:29.995Z,3
2023-03-26T18:07:07.236Z,2.3
2023-03-26T18:09:12.966Z,2.2
2023-03-26T18:23:59.800Z,2
2023-03-26T18:28:10.897Z,2.3
2023-03-26T18:30:16.665Z,1.5
2023-03-26T18:32:22.420Z,2.6
2023-03-26T18:34:28.179Z,1.8
2023-03-26T18:36:34.063Z,2.1
2023-03-26T18:38:41.230Z,2.8
2023-03-26T18:40:45.426Z,1.3
2023-03-26T18:42:54.237Z,1.6
2023-03-26T18:45:01.589Z,1.5
2023-03-26T18:51:17.195Z,1.3
2023-03-26T18:55:28.699Z,1.2
2023-03-26T18:57:37.526Z,2.6
2023-03-26T18:59:43.277Z,1.4
2023-03-26T19:02:53.472Z,2.4
2023-03-26T19:04:59.178Z,1.5
2023-03-26T19:07:04.909Z,2.5
2023-03-26T19:09:20.040Z,1.4
2023-03-26T19:11:19.436Z,3
2023-03-26T19:13:25.236Z,2.3
2023-03-26T19:15:30.936Z,2.1
2023-03-26T19:17:36.736Z,1.7
2023-03-26T19:26:02.689Z,2.1
2023-03-26T19:32:19.847Z,3.1
2023-03-26T19:34:25.599Z,1.2
2023-03-26T19:36:31.321Z,2
2023-03-26T19:40:45.867Z,1.8
2023-03-26T19:42:51.579Z,1.5
2023-03-26T19:44:57.292Z,1.9
2023-03-26T19:47:03.051Z,2.9
2023-03-26T19:49:08.746Z,2.3
2023-03-26T19:51:14.431Z,1.2
2023-03-26T19:53:20.126Z,3.3
2023-03-26T19:57:34.599Z,2.2
2023-03-26T20:00:44.709Z,1.7
2023-03-26T20:02:50.665Z,2.6
2023-03-26T20:04:56.131Z,1.7
2023-03-26T20:07:01.834Z,1.8
2023-03-26T20:09:10.606Z,2
2023-03-26T20:11:16.290Z,2.2
2023-03-26T20:13:21.989Z,2.4
2023-03-26T20:17:33.416Z,1.9
2023-03-26T20:19:39.121Z,2.2
2023-03-26T20:21:44.857Z,1.8
2023-03-26T20:36:33.763Z,2.5
2023-03-26T20:38:39.377Z,3.4
2023-03-26T20:49:04.930Z,1.2
2023-03-26T20:55:25.073Z,1.4
2023-03-26T20:58:35.178Z,2
2023-03-26T21:00:40.910Z,1.1
2023-03-26T21:02:46.650Z,2.1
2023-03-26T21:04:52.243Z,3.2
2023-03-26T21:09:06.711Z,1.6
2023-03-26T21:11:12.428Z,3.6
2023-03-26T21:13:18.108Z,2.6
2023-03-26T21:19:35.192Z,2.4
2023-03-26T21:21:44.031Z,1.2
2023-03-26T21:23:49.647Z,1.6
2023-03-26T21:28:01.031Z,2.1
2023-03-26T21:32:12.409Z,1.7
2023-03-26T21:34:18.115Z,1.4
2023-03-26T21:36:26.859Z,1.8
2023-03-26T21:38:32.566Z,1.3
2023-03-26T21:46:55.260Z,2.4
2023-03-26T21:49:00.981Z,1.9
2023-03-26T21:51:09.706Z,2.7
2023-03-26T21:55:21.062Z,3.2
2023-03-26T22:02:03.983Z,1.6
2023-03-26T22:06:18.379Z,1.9
2023-03-26T22:14:41.055Z,1.3
2023-03-26T22:16:46.748Z,1.6
2023-03-26T22:27:18.159Z,0.8
2023-03-26T22:31:29.494Z,1.1
2023-03-26T22:33:38.178Z,1.8
2023-03-26T22:35:45.510Z,1.1
2023-03-26T22:37:51.056Z,1.6
2023-03-26T22:39:56.730Z,1.2
2023-03-26T22:42:02.370Z,1.4
2023-03-26T22:44:19.191Z,1.2
2023-03-26T22:46:13.732Z,2
2023-03-26T22:48:22.380Z,1.7
2023-03-26T22:50:28.021Z,1.6
2023-03-26T22:52:33.649Z,2.1
2023-03-26T22:53:38.022Z,1.5
2023-03-26T22:55:43.661Z,1
2023-03-26T22:57:49.487Z,1.1
2023-03-26T22:59:54.976Z,1.5
2023-03-26T23:02:03.725Z,1.7
2023-03-26T23:04:09.385Z,1.6
2023-03-26T23:06:15.000Z,2.6
2023-03-26T23:08:20.649Z,1
2023-03-26T23:10:26.324Z,1.5
2023-03-26T23:12:31.975Z,1.8
2023-03-26T23:14:37.614Z,2
2023-03-26T23:16:46.367Z,2.5
2023-03-26T23:18:52.031Z,1.9
2023-03-26T23:20:58.038Z,2
2023-03-26T23:25:08.985Z,1.6
2023-03-26T23:27:14.609Z,2.8
2023-03-26T23:29:20.279Z,2.3
2023-03-26T23:31:29.058Z,2.1
2023-03-26T23:33:34.652Z,2.7
2023-03-26T23:35:40.323Z,1
2023-03-26T23:37:45.968Z,1.6
2023-03-26T23:39:51.634Z,1
2023-03-26T23:41:57.257Z,1.7
2023-03-26T23:44:02.870Z,1.7
2023-03-26T23:46:11.700Z,2.3
2023-03-26T23:48:17.217Z,1.5
2023-03-26T23:50:22.849Z,2
2023-03-26T23:51:27.252Z,1.3
2023-03-26T23:57:44.151Z,1.1
2023-03-26T23:59:52.845Z,1.1
